LIMFLIMJ

Guest
Details From LIMF - Torino Caselle
To LIMJ - Genova Sestri
Flight Number -
Tags generated
Created
Modified
Stats Distance 69 nm / 129 km
Max Altitude 0 ft / 0 m
Waypoints 2
Social Downloads 2
Likes 0
Share VATSIM

Download

Looking for another format? Having issues loading an existing format? Contact us
Advertisement - Login to hide

Notes

Basic altitude profile: - Ascent Rate: 700ft/min - Ascent Speed: 75kts - Cruise Altitude: 35000ft - Cruise Speed: 100kts - Descent Rate: 500ft/min - Descent Speed: 75kts Options: - Use NATs: no - Use PACOTS: no - Use low airways: no - Use high airways: no

Route

LIMF LIMJ

ID Type Via Altitude Latitude Longitude Leg Dist Tot Dist Heading (true) Name
O LIMF APT - 0 ft / 0 m 45.20076˚ 7.64963˚ - 0 nm - Torino Caselle
O LIMJ APT - 0 ft / 0 m 44.41196˚ 8.84187˚ 69 nm 69 nm 133° / 133° Genova Sestri

Altitude Profile

Advertisement - Login to hide

LIMF

Details ICAO LIMF (TRN)
Name Torino Caselle
Region Italy
Timezone Europe/Rome (UTC+1.0)
Stats Elevation 989 ft / 301 m (AMSL)
Location 45.200763° 7.649630°
Runways 1
Magnetic Variation 2.121° E

METAR

LIMF 112120Z VRB01KT 1500 -SN SCT008 OVC020 00/00 Q0995 R36/590295

Decode

TAF

TAF LIMF 111700Z 1118/1218 VRB05KT 1200 SN OVC005 BECMG 1120/1122 2500 BR BKN025 BKN060 TEMPO 1200/1206 0500 FZFG BKN005 BECMG 1207/1210 7000

Decode

Departure Runways

ID Width Length Bearing (true) Bearing (mag) Surface Threshold Offset Overrun Length
18 197 ft / 60 m 10,835 ft / 3,303 m 182.56° 180.44° Asphalt 2,378 ft / 725 m 970 ft / 296 m
36 197 ft / 60 m 10,835 ft / 3,303 m 2.56° 0.44° Asphalt 1,148 ft / 350 m 0 ft / 0 m

LIMJ

Details ICAO LIMJ (GOA)
Name Genova Sestri
Region Italy
Timezone Unknown (UTC+0.0)
Stats Elevation 13 ft / 4 m (AMSL)
Location 44.411957° 8.841866°
Runways 1
Magnetic Variation 2.387° E

METAR

LIMJ 112120Z 19019KT 5000 -RA SCT010 BKN025 15/14 Q0995

Decode

TAF

TAF AMD LIMJ 111718Z 1118/1218 21015G35KT 5000 RA BKN020 BKN050 TEMPO 1121/1124 SHRA BECMG 1200/1202 8000 NSW BECMG 1212/1214 20012KT

Decode

Destination Runways

ID Width Length Bearing (true) Bearing (mag) Surface Threshold Offset Overrun Length
10 148 ft / 45 m 9,574 ft / 2,918 m 105.39° 103.00° Asphalt 0 ft / 0 m 0 ft / 0 m
28 148 ft / 45 m 9,574 ft / 2,918 m 285.41° 283.02° Asphalt 538 ft / 164 m 0 ft / 0 m

Approach Navaids

Runway Type Ident Frequency Range Bearing (true) Bearing (mag) Slope Elevation
28 Localiser GSE 109.30 MHz 18 nm / 33 km 287.30° 284.92° - 9 ft / 3 m (AMSL)
28 Glidescope GSE 109.30 MHz 10 nm / 19 km 287.30° 284.92° 3.17° 26 ft / 8 m (AMSL)
28 DME GSE 109.30 MHz 18 nm / 33 km - - - 26 ft / 8 m (AMSL)

Popular Alternatives